Time;durP1;ratioP1;P1;durP2;ratioP2;P2;SDS_P1;SDS_P2;PMS_P1;PMS_P2;Temp;Humidity;BMP_temperature;BMP_pressure;BME280_temperature;BME280_humidity;BME280_pressure;Samples;Min_cycle;Max_cycle;Signal;HPM_P1;HPM_P2
2022/01/02 00:01:04;;;;;;;103.07;42.90;;;;;;;;;;5034795;28;20498;-79
2022/01/02 00:03:55;;;;;;;101.47;43.03;;;;;;;;;;5034630;28;20042;-81
2022/01/02 00:06:52;;;;;;;109.78;46.58;;;;;;;;;;5033164;28;20049;-81
2022/01/02 00:09:44;;;;;;;108.72;45.60;;;;;;;;;;5011944;28;20401;-81
2022/01/02 00:12:32;;;;;;;100.55;47.95;;;;;;;;;;5033831;28;20041;-81
2022/01/02 00:15:20;;;;;;;129.90;53.13;;;;;;;;;;5033199;28;20049;-81
2022/01/02 00:18:11;;;;;;;102.43;47.35;;;;;;;;;;5038807;28;20486;-82
2022/01/02 00:20:59;;;;;;;91.63;46.40;;;;;;;;;;5032276;28;20041;-82
2022/01/02 00:23:57;;;;;;;96.40;45.70;;;;;;;;;;5032228;28;20442;-81
2022/01/02 00:26:45;;;;;;;93.03;45.22;;;;;;;;;;5032088;28;20049;-82
2022/01/02 00:29:30;;;;;;;89.00;46.85;;;;;;;;;;5023721;28;20490;-81
2022/01/02 00:32:16;;;;;;;98.35;50.72;;;;;;;;;;5040451;28;20045;-81
2022/01/02 00:35:02;;;;;;;125.38;58.28;;;;;;;;;;5034036;28;20041;-82
2022/01/02 00:37:47;;;;;;;125.72;56.33;;;;;;;;;;5034460;28;20049;-80
2022/01/02 00:40:40;;;;;;;110.95;49.33;;;;;;;;;;5033817;28;20394;-80
2022/01/02 00:43:37;;;;;;;112.53;50.65;;;;;;;;;;5033762;28;20054;-79
2022/01/02 00:46:23;;;;;;;107.93;49.70;;;;;;;;;;5034367;28;20056;-80
2022/01/02 00:49:09;;;;;;;129.35;59.35;;;;;;;;;;5033641;28;20398;-80
2022/01/02 00:52:10;;;;;;;143.95;68.85;;;;;;;;;;5034086;28;20050;-81
2022/01/02 00:54:56;;;;;;;120.15;56.40;;;;;;;;;;5033691;28;20486;-81
2022/01/02 00:57:43;;;;;;;268.05;87.40;;;;;;;;;;5025777;28;20037;-81
2022/01/02 01:00:29;;;;;;;228.32;82.95;;;;;;;;;;5013575;28;20042;-81
2022/01/02 01:03:29;;;;;;;154.07;65.22;;;;;;;;;;5013812;28;20045;-81
2022/01/02 01:06:17;;;;;;;127.88;55.85;;;;;;;;;;5005725;28;20042;-81
2022/01/02 01:09:05;;;;;;;144.50;61.08;;;;;;;;;;5005795;28;20495;-83
2022/01/02 01:11:51;;;;;;;119.88;56.72;;;;;;;;;;5014068;28;20479;-82
2022/01/02 01:14:36;;;;;;;133.38;58.47;;;;;;;;;;5014050;28;20041;-82
2022/01/02 01:17:22;;;;;;;141.60;63.35;;;;;;;;;;5019476;28;20514;-82
2022/01/02 01:20:12;;;;;;;154.13;68.90;;;;;;;;;;5014330;28;20391;-83
2022/01/02 01:22:58;;;;;;;111.55;54.70;;;;;;;;;;5013727;28;20531;-83
2022/01/02 01:25:46;;;;;;;94.90;42.85;;;;;;;;;;5014114;28;20042;-83
2022/01/02 01:28:31;;;;;;;78.80;40.05;;;;;;;;;;5006337;28;20054;-83
2022/01/02 01:31:16;;;;;;;78.60;39.72;;;;;;;;;;5005389;28;20042;-83
2022/01/02 01:34:01;;;;;;;78.53;38.40;;;;;;;;;;5005200;28;20038;-83
2022/01/02 01:36:48;;;;;;;83.68;39.38;;;;;;;;;;5005776;28;20046;-82
2022/01/02 01:39:33;;;;;;;80.47;38.88;;;;;;;;;;5005169;28;20038;-82
2022/01/02 01:42:29;;;;;;;80.45;37.33;;;;;;;;;;5005518;28;20046;-83
2022/01/02 01:48:06;;;;;;;61.83;30.95;;;;;;;;;;5022441;28;20025;-84
2022/01/02 01:50:53;;;;;;;59.75;32.85;;;;;;;;;;5021420;28;20046;-84
2022/01/02 01:53:41;;;;;;;67.70;30.55;;;;;;;;;;5023083;28;20042;-82
2022/01/02 01:56:27;;;;;;;55.35;29.27;;;;;;;;;;4995480;28;20050;-83
2022/01/02 01:59:14;;;;;;;59.35;34.25;;;;;;;;;;5021704;28;20041;-82
2022/01/02 02:02:01;;;;;;;59.65;33.95;;;;;;;;;;5042544;28;20041;-82
2022/01/02 02:04:46;;;;;;;66.05;35.25;;;;;;;;;;5042333;28;20045;-82
2022/01/02 02:07:40;;;;;;;80.45;41.17;;;;;;;;;;5042643;28;20045;-82
2022/01/02 02:10:39;;;;;;;82.68;41.85;;;;;;;;;;5041981;28;20037;-82
2022/01/02 02:13:27;;;;;;;73.25;38.65;;;;;;;;;;5042214;28;20046;-82
2022/01/02 02:16:18;;;;;;;73.75;36.95;;;;;;;;;;5042680;28;20391;-82
2022/01/02 02:19:05;;;;;;;69.90;36.53;;;;;;;;;;5042132;28;20494;-82
2022/01/02 02:21:51;;;;;;;67.85;36.30;;;;;;;;;;5042302;28;20037;-82
2022/01/02 02:24:36;;;;;;;68.50;36.08;;;;;;;;;;5042492;28;20045;-82
2022/01/02 02:27:23;;;;;;;75.60;37.60;;;;;;;;;;5041914;28;20049;-82
2022/01/02 02:30:09;;;;;;;68.85;36.33;;;;;;;;;;5041792;28;20045;-82
2022/01/02 02:32:56;;;;;;;59.20;32.65;;;;;;;;;;5036489;28;20057;-83
2022/01/02 02:35:44;;;;;;;54.97;31.70;;;;;;;;;;5042041;28;20045;-82
2022/01/02 02:38:32;;;;;;;53.85;29.35;;;;;;;;;;5041705;28;20045;-82
2022/01/02 02:41:21;;;;;;;68.18;35.45;;;;;;;;;;5041702;28;20414;-82
2022/01/02 02:44:18;;;;;;;61.03;34.65;;;;;;;;;;5041911;28;20087;-82
2022/01/02 02:50:09;;;;;;;60.17;31.77;;;;;;;;;;5066658;28;20025;-81
2022/01/02 02:52:55;;;;;;;64.15;34.28;;;;;;;;;;5047725;28;20037;-82
2022/01/02 02:55:47;;;;;;;63.22;34.80;;;;;;;;;;5041345;28;20049;-82
2022/01/02 03:01:22;;;;;;;56.03;30.92;;;;;;;;;;5027150;28;20418;-82
2022/01/02 03:04:09;;;;;;;59.85;31.05;;;;;;;;;;5027389;28;20049;-82
2022/01/02 03:06:55;;;;;;;65.47;32.95;;;;;;;;;;5027564;28;20482;-82
2022/01/02 03:09:47;;;;;;;58.78;31.98;;;;;;;;;;5013356;28;20049;-82
2022/01/02 03:12:33;;;;;;;60.85;34.88;;;;;;;;;;5013798;28;20049;-82
2022/01/02 03:15:20;;;;;;;61.72;32.50;;;;;;;;;;5027445;28;20049;-82
2022/01/02 03:18:07;;;;;;;56.70;30.67;;;;;;;;;;5027687;28;20049;-82
2022/01/02 03:20:52;;;;;;;51.80;27.83;;;;;;;;;;5027016;28;20037;-82
2022/01/02 03:23:38;;;;;;;43.40;24.55;;;;;;;;;;5041792;28;20057;-82
2022/01/02 03:26:23;;;;;;;50.50;28.02;;;;;;;;;;5027040;28;20037;-82
2022/01/02 03:29:09;;;;;;;78.28;40.53;;;;;;;;;;5026738;28;20486;-82
2022/01/02 03:31:54;;;;;;;89.55;44.35;;;;;;;;;;5041731;28;20037;-82
2022/01/02 03:34:40;;;;;;;83.78;41.92;;;;;;;;;;5035744;28;20038;-81
2022/01/02 03:37:28;;;;;;;83.97;39.83;;;;;;;;;;5035219;28;20049;-81
2022/01/02 03:40:14;;;;;;;118.95;50.88;;;;;;;;;;5026613;28;20049;-81
2022/01/02 03:43:00;;;;;;;158.70;67.75;;;;;;;;;;5026536;28;20502;-81
2022/01/02 03:45:45;;;;;;;142.13;59.67;;;;;;;;;;5026931;28;20045;-80
2022/01/02 03:48:33;;;;;;;177.02;82.75;;;;;;;;;;5026644;28;20041;-80
2022/01/02 03:51:18;;;;;;;166.27;73.00;;;;;;;;;;5026646;28;20045;-81
2022/01/02 03:54:04;;;;;;;92.68;39.20;;;;;;;;;;5034592;28;20049;-80
2022/01/02 03:56:52;;;;;;;39.65;21.05;;;;;;;;;;5026314;28;20497;-80
2022/01/02 03:59:38;;;;;;;43.65;20.83;;;;;;;;;;5027087;28;20049;-80
2022/01/02 04:02:24;;;;;;;35.83;18.27;;;;;;;;;;5034941;28;20041;-82
2022/01/02 04:05:11;;;;;;;32.50;17.77;;;;;;;;;;5040041;28;20046;-81
2022/01/02 04:07:56;;;;;;;29.88;14.95;;;;;;;;;;5056037;28;20026;-79
2022/01/02 04:10:41;;;;;;;27.33;15.10;;;;;;;;;;5042469;28;20049;-81
2022/01/02 04:13:26;;;;;;;23.48;11.90;;;;;;;;;;5039915;28;20041;-81
2022/01/02 04:16:12;;;;;;;19.65;12.23;;;;;;;;;;5034418;28;20049;-81
2022/01/02 04:18:57;;;;;;;19.60;9.98;;;;;;;;;;5034239;28;20041;-81
2022/01/02 04:21:43;;;;;;;26.50;14.38;;;;;;;;;;5033751;28;20390;-82
2022/01/02 04:24:29;;;;;;;37.25;20.33;;;;;;;;;;5040010;28;20054;-82
2022/01/02 04:27:16;;;;;;;52.33;27.50;;;;;;;;;;5033987;28;20033;-82
2022/01/02 04:30:05;;;;;;;46.65;24.70;;;;;;;;;;5039899;28;20398;-83
2022/01/02 04:32:52;;;;;;;48.88;28.23;;;;;;;;;;5039616;28;20038;-83
2022/01/02 04:35:38;;;;;;;52.13;25.63;;;;;;;;;;5039844;28;20049;-82
2022/01/02 04:38:24;;;;;;;49.70;25.95;;;;;;;;;;5033971;28;20041;-83
2022/01/02 04:41:09;;;;;;;50.70;25.98;;;;;;;;;;5039168;28;20490;-83
2022/01/02 04:43:54;;;;;;;52.65;26.52;;;;;;;;;;5039687;28;20042;-83
2022/01/02 04:46:40;;;;;;;52.60;27.88;;;;;;;;;;5039645;28;20042;-83
2022/01/02 04:49:26;;;;;;;54.85;26.88;;;;;;;;;;5039606;28;20045;-82
2022/01/02 04:52:11;;;;;;;48.72;25.60;;;;;;;;;;5039354;28;20045;-82
2022/01/02 04:54:57;;;;;;;50.92;27.08;;;;;;;;;;5033578;28;20042;-82
2022/01/02 04:57:43;;;;;;;65.30;33.33;;;;;;;;;;5039274;28;20045;-82
2022/01/02 05:00:28;;;;;;;46.08;25.98;;;;;;;;;;5032796;28;20045;-82
2022/01/02 05:03:14;;;;;;;40.88;22.35;;;;;;;;;;5032952;28;20411;-82
2022/01/02 05:05:59;;;;;;;34.28;19.98;;;;;;;;;;5039152;28;20042;-82
2022/01/02 05:08:45;;;;;;;36.17;20.42;;;;;;;;;;5039224;28;20041;-82
2022/01/02 05:11:31;;;;;;;34.95;19.88;;;;;;;;;;5039623;28;20046;-82
2022/01/02 05:14:17;;;;;;;44.38;21.42;;;;;;;;;;5039310;28;20045;-82
2022/01/02 05:17:02;;;;;;;40.28;20.80;;;;;;;;;;5039042;28;20483;-82
2022/01/02 05:19:47;;;;;;;40.65;22.75;;;;;;;;;;5039097;28;20041;-82
2022/01/02 05:22:33;;;;;;;40.03;21.75;;;;;;;;;;5037439;28;20054;-82
2022/01/02 05:25:18;;;;;;;42.10;23.77;;;;;;;;;;5029812;28;20049;-82
2022/01/02 05:28:04;;;;;;;47.30;27.17;;;;;;;;;;5037546;28;20037;-82
2022/01/02 05:30:49;;;;;;;38.80;21.38;;;;;;;;;;5043245;28;20463;-82
2022/01/02 05:33:35;;;;;;;33.35;19.67;;;;;;;;;;5043097;28;20455;-82
2022/01/02 05:36:21;;;;;;;26.02;14.35;;;;;;;;;;5042771;28;20038;-82
2022/01/02 05:39:07;;;;;;;27.10;14.88;;;;;;;;;;5043152;28;20049;-81
2022/01/02 05:41:53;;;;;;;33.13;16.92;;;;;;;;;;5042777;28;20046;-83
2022/01/02 05:44:42;;;;;;;42.88;21.55;;;;;;;;;;5042709;28;20042;-82
2022/01/02 05:47:28;;;;;;;32.53;19.20;;;;;;;;;;5042791;28;20049;-82
2022/01/02 05:50:13;;;;;;;29.10;17.35;;;;;;;;;;5042593;28;20422;-82
2022/01/02 05:52:59;;;;;;;37.33;19.65;;;;;;;;;;5043503;28;20049;-82
2022/01/02 05:55:46;;;;;;;31.77;18.23;;;;;;;;;;5064171;28;20061;-82
2022/01/02 05:58:32;;;;;;;29.52;17.52;;;;;;;;;;5056931;28;20053;-81
2022/01/02 06:01:17;;;;;;;30.42;17.15;;;;;;;;;;5038939;28;20049;-82
2022/01/02 06:04:02;;;;;;;36.20;18.67;;;;;;;;;;5036782;28;20045;-82
2022/01/02 06:06:48;;;;;;;31.38;16.92;;;;;;;;;;5027844;28;20053;-82
2022/01/02 06:09:35;;;;;;;27.80;16.42;;;;;;;;;;5028310;28;20041;-82
2022/01/02 06:12:26;;;;;;;27.83;16.00;;;;;;;;;;5028047;28;20041;-82
2022/01/02 06:15:12;;;;;;;31.33;17.45;;;;;;;;;;5028212;28;20050;-82
2022/01/02 06:17:57;;;;;;;50.47;23.80;;;;;;;;;;5028198;28;20041;-82
2022/01/02 06:20:43;;;;;;;63.70;26.38;;;;;;;;;;5027590;28;20045;-82
2022/01/02 06:23:29;;;;;;;69.30;28.77;;;;;;;;;;5048748;28;20049;-82
2022/01/02 06:26:15;;;;;;;63.63;26.85;;;;;;;;;;5047753;28;20041;-83
2022/01/02 06:29:03;;;;;;;57.10;24.83;;;;;;;;;;5027977;28;20041;-82
2022/01/02 06:31:49;;;;;;;55.90;24.50;;;;;;;;;;5027307;28;20498;-82
2022/01/02 06:34:35;;;;;;;45.90;21.50;;;;;;;;;;5027979;28;20395;-82
2022/01/02 06:37:22;;;;;;;36.72;18.98;;;;;;;;;;5028103;28;20045;-82
2022/01/02 06:40:07;;;;;;;36.50;17.83;;;;;;;;;;5027146;28;20045;-82
2022/01/02 06:42:53;;;;;;;36.78;16.58;;;;;;;;;;5036068;28;20041;-82
2022/01/02 06:45:39;;;;;;;35.88;18.48;;;;;;;;;;5027691;28;20054;-83
2022/01/02 06:48:25;;;;;;;60.22;25.00;;;;;;;;;;5027900;28;20053;-82
2022/01/02 06:51:10;;;;;;;62.75;29.50;;;;;;;;;;5027191;28;20049;-82
2022/01/02 06:53:56;;;;;;;48.78;24.55;;;;;;;;;;5027455;28;20037;-82
2022/01/02 06:56:41;;;;;;;44.53;21.17;;;;;;;;;;5027689;28;20050;-82
2022/01/02 06:59:31;;;;;;;41.22;22.85;;;;;;;;;;5027292;28;20053;-83
2022/01/02 07:02:18;;;;;;;67.78;33.20;;;;;;;;;;5041257;28;20041;-83
2022/01/02 07:05:04;;;;;;;72.35;33.70;;;;;;;;;;5041393;28;20045;-82
2022/01/02 07:07:51;;;;;;;73.00;42.60;;;;;;;;;;5041087;28;20038;-82
2022/01/02 07:10:38;;;;;;;82.80;48.70;;;;;;;;;;5041338;28;20041;-83
2022/01/02 07:13:23;;;;;;;60.63;43.25;;;;;;;;;;5035246;28;20056;-83
2022/01/02 07:16:09;;;;;;;70.75;44.45;;;;;;;;;;5035419;28;20045;-82
2022/01/02 07:18:54;;;;;;;53.88;33.60;;;;;;;;;;5035327;28;20041;-82
2022/01/02 07:21:40;;;;;;;40.25;27.08;;;;;;;;;;5034584;28;20053;-82
2022/01/02 07:24:26;;;;;;;48.50;29.35;;;;;;;;;;5035136;28;20045;-82
2022/01/02 07:27:11;;;;;;;65.18;36.95;;;;;;;;;;5035023;28;20386;-82
2022/01/02 07:29:58;;;;;;;133.15;60.53;;;;;;;;;;5035057;28;20049;-82
2022/01/02 07:32:43;;;;;;;175.15;76.53;;;;;;;;;;5034999;28;20479;-83
2022/01/02 07:35:29;;;;;;;163.60;71.63;;;;;;;;;;5034780;28;20049;-82
2022/01/02 07:38:14;;;;;;;115.22;50.72;;;;;;;;;;5035173;28;20041;-82
2022/01/02 07:41:01;;;;;;;107.10;49.80;;;;;;;;;;5034743;28;20054;-83
2022/01/02 07:43:46;;;;;;;106.10;53.45;;;;;;;;;;5033996;28;20041;-82
2022/01/02 07:46:33;;;;;;;57.15;31.30;;;;;;;;;;5034689;28;20041;-82
2022/01/02 07:49:19;;;;;;;37.30;22.80;;;;;;;;;;5034550;28;20054;-82
2022/01/02 07:52:04;;;;;;;40.53;25.10;;;;;;;;;;5034557;28;20041;-82
2022/01/02 07:54:50;;;;;;;48.28;29.08;;;;;;;;;;5034889;28;20046;-82
2022/01/02 07:57:35;;;;;;;54.83;32.05;;;;;;;;;;5034670;28;20046;-82
2022/01/02 08:00:22;;;;;;;59.40;36.63;;;;;;;;;;5034469;28;20041;-82
2022/01/02 08:03:08;;;;;;;82.90;44.97;;;;;;;;;;5034455;28;20045;-82
2022/01/02 08:05:53;;;;;;;114.07;61.65;;;;;;;;;;5034122;28;20041;-82
2022/01/02 08:08:39;;;;;;;79.18;41.75;;;;;;;;;;5034259;28;20053;-82
2022/01/02 08:11:24;;;;;;;59.38;37.75;;;;;;;;;;5034179;28;20049;-82
2022/01/02 08:14:11;;;;;;;54.40;32.78;;;;;;;;;;5025931;28;20050;-82
2022/01/02 08:16:57;;;;;;;58.42;32.90;;;;;;;;;;5034098;28;20045;-82
2022/01/02 08:19:42;;;;;;;55.00;30.95;;;;;;;;;;5034494;28;20041;-82
2022/01/02 08:22:28;;;;;;;50.03;29.00;;;;;;;;;;5033738;28;20045;-81
2022/01/02 08:25:13;;;;;;;46.63;25.73;;;;;;;;;;5033851;28;20394;-81
2022/01/02 08:27:59;;;;;;;28.48;16.30;;;;;;;;;;5034076;28;20045;-81
2022/01/02 08:30:45;;;;;;;35.35;19.52;;;;;;;;;;5033252;28;20041;-81
2022/01/02 08:33:31;;;;;;;40.67;25.98;;;;;;;;;;5033824;28;20042;-81
2022/01/02 08:36:16;;;;;;;31.55;17.73;;;;;;;;;;5033812;28;20049;-81
2022/01/02 08:39:02;;;;;;;16.70;10.27;;;;;;;;;;5033113;28;20050;-82
2022/01/02 08:41:48;;;;;;;24.25;14.68;;;;;;;;;;5048738;28;20045;-81
2022/01/02 08:44:34;;;;;;;19.13;12.02;;;;;;;;;;5045799;28;20490;-81
2022/01/02 08:47:19;;;;;;;17.92;12.07;;;;;;;;;;5033780;28;20045;-82
2022/01/02 08:50:05;;;;;;;27.23;16.45;;;;;;;;;;5034053;28;20041;-82
2022/01/02 08:52:51;;;;;;;28.25;16.40;;;;;;;;;;5018840;28;20041;-81
2022/01/02 08:55:36;;;;;;;26.02;16.90;;;;;;;;;;5033540;28;20482;-81
2022/01/02 08:58:22;;;;;;;29.05;17.77;;;;;;;;;;5033303;28;20041;-82
2022/01/02 09:01:07;;;;;;;23.38;15.25;;;;;;;;;;5033567;28;20041;-81
2022/01/02 09:03:52;;;;;;;24.00;13.43;;;;;;;;;;5033524;28;20041;-81
2022/01/02 09:06:38;;;;;;;39.90;14.30;;;;;;;;;;5033082;28;20054;-81
2022/01/02 09:09:24;;;;;;;29.98;13.18;;;;;;;;;;5034350;28;20474;-81
2022/01/02 09:12:12;;;;;;;22.02;14.25;;;;;;;;;;5055322;28;20057;-81
2022/01/02 09:14:57;;;;;;;25.15;15.02;;;;;;;;;;5041498;28;20038;-80
2022/01/02 09:17:43;;;;;;;33.28;18.50;;;;;;;;;;5033808;28;20053;-76
2022/01/02 09:20:29;;;;;;;35.45;20.70;;;;;;;;;;5033078;28;20042;-76
2022/01/02 09:23:14;;;;;;;29.88;18.50;;;;;;;;;;5033408;28;20037;-76
2022/01/02 09:26:00;;;;;;;24.45;15.35;;;;;;;;;;5033323;28;20046;-77
2022/01/02 09:28:46;;;;;;;26.23;14.65;;;;;;;;;;5033705;28;20049;-78
2022/01/02 09:31:31;;;;;;;42.58;20.40;;;;;;;;;;5033600;28;20045;-77
2022/01/02 09:34:18;;;;;;;23.60;13.30;;;;;;;;;;5033362;28;20053;-77
2022/01/02 09:37:04;;;;;;;28.52;15.30;;;;;;;;;;5033378;28;20053;-78
2022/01/02 09:39:49;;;;;;;19.98;12.23;;;;;;;;;;5032679;28;20049;-77
2022/01/02 09:42:37;;;;;;;21.13;12.00;;;;;;;;;;5033013;28;20041;-78
2022/01/02 09:45:23;;;;;;;19.30;11.50;;;;;;;;;;5033004;28;20046;-78
2022/01/02 09:48:09;;;;;;;19.45;11.32;;;;;;;;;;5032952;28;20042;-77
2022/01/02 09:50:55;;;;;;;27.17;15.75;;;;;;;;;;5031931;28;20050;-74
2022/01/02 09:53:41;;;;;;;21.08;11.75;;;;;;;;;;5033450;28;20057;-78
2022/01/02 09:56:27;;;;;;;16.95;10.35;;;;;;;;;;5032972;28;20486;-76
2022/01/02 09:59:12;;;;;;;20.73;11.65;;;;;;;;;;5032587;28;20046;-77
2022/01/02 10:02:01;;;;;;;28.98;17.20;;;;;;;;;;5032546;28;20045;-76
2022/01/02 10:04:46;;;;;;;22.95;14.18;;;;;;;;;;5033120;28;20045;-77
2022/01/02 10:07:33;;;;;;;25.33;16.38;;;;;;;;;;5036034;28;20045;-75
2022/01/02 10:10:21;;;;;;;28.15;16.13;;;;;;;;;;5043172;28;20041;-75
2022/01/02 10:13:06;;;;;;;27.00;16.98;;;;;;;;;;5036292;28;20045;-76
2022/01/02 10:15:52;;;;;;;26.23;17.23;;;;;;;;;;5036528;28;20505;-76
2022/01/02 10:18:37;;;;;;;26.60;15.38;;;;;;;;;;5036646;28;20041;-76
2022/01/02 10:21:41;;;;;;;30.48;17.02;;;;;;;;;;5021161;28;20050;-76
2022/01/02 10:24:33;;;;;;;23.45;14.45;;;;;;;;;;5043080;28;20135;-75
2022/01/02 10:27:21;;;;;;;26.40;15.88;;;;;;;;;;5036207;28;20050;-77
2022/01/02 10:30:07;;;;;;;29.20;15.80;;;;;;;;;;5035739;28;20049;-77
2022/01/02 10:32:55;;;;;;;24.15;13.88;;;;;;;;;;5035666;28;20405;-77
2022/01/02 10:35:42;;;;;;;21.88;11.82;;;;;;;;;;5036172;28;20053;-77
2022/01/02 10:38:30;;;;;;;19.55;12.70;;;;;;;;;;5036369;28;20045;-78
2022/01/02 10:41:33;;;;;;;21.42;12.60;;;;;;;;;;5036013;28;20063;-76
2022/01/02 10:44:29;;;;;;;21.48;11.48;;;;;;;;;;5042385;28;20214;-75
2022/01/02 10:47:22;;;;;;;23.73;13.57;;;;;;;;;;5036198;28;20071;-76
2022/01/02 10:50:11;;;;;;;24.17;14.25;;;;;;;;;;5034975;28;20049;-80
2022/01/02 10:52:56;;;;;;;16.13;10.00;;;;;;;;;;5035971;28;20049;-78
2022/01/02 10:55:44;;;;;;;19.65;9.90;;;;;;;;;;5035413;28;20042;-77
2022/01/02 10:58:33;;;;;;;17.30;9.15;;;;;;;;;;5033803;28;20041;-77
2022/01/02 11:01:20;;;;;;;14.90;9.70;;;;;;;;;;5051003;28;20054;-77
2022/01/02 11:04:08;;;;;;;14.38;8.38;;;;;;;;;;5036324;28;20042;-77
2022/01/02 11:06:53;;;;;;;13.63;7.38;;;;;;;;;;5035640;28;20037;-77
2022/01/02 11:09:39;;;;;;;17.50;9.68;;;;;;;;;;5035655;28;20498;-77
2022/01/02 11:12:24;;;;;;;18.48;8.63;;;;;;;;;;5035381;28;20046;-77
2022/01/02 11:15:16;;;;;;;17.55;8.32;;;;;;;;;;5035389;28;20502;-77
2022/01/02 11:18:02;;;;;;;13.63;8.48;;;;;;;;;;5035165;28;20049;-77
2022/01/02 11:20:47;;;;;;;10.02;6.05;;;;;;;;;;5035039;28;20510;-77
2022/01/02 11:23:46;;;;;;;10.70;6.30;;;;;;;;;;5042260;28;20045;-77
2022/01/02 11:26:52;;;;;;;11.73;5.72;;;;;;;;;;5020172;28;20042;-76
2022/01/02 11:29:37;;;;;;;9.25;6.03;;;;;;;;;;5035258;28;20042;-77
2022/01/02 11:32:27;;;;;;;11.73;6.60;;;;;;;;;;5034691;28;20049;-76
2022/01/02 11:35:27;;;;;;;13.80;7.68;;;;;;;;;;5035214;28;20046;-76
2022/01/02 11:38:15;;;;;;;12.30;7.18;;;;;;;;;;5034610;28;20042;-76
2022/01/02 11:41:01;;;;;;;13.20;7.53;;;;;;;;;;5019706;28;20050;-76
2022/01/02 11:43:51;;;;;;;13.75;7.57;;;;;;;;;;5034744;28;20041;-75
2022/01/02 11:46:52;;;;;;;13.80;8.55;;;;;;;;;;5034765;28;20049;-75
2022/01/02 11:49:40;;;;;;;13.55;9.23;;;;;;;;;;5034310;28;20050;-74
2022/01/02 11:52:28;;;;;;;39.53;22.92;;;;;;;;;;5041160;28;20041;-75
2022/01/02 11:55:16;;;;;;;17.10;10.35;;;;;;;;;;5034218;28;20045;-77
2022/01/02 11:58:02;;;;;;;13.13;7.70;;;;;;;;;;5041005;28;20053;-76
2022/01/02 12:00:47;;;;;;;16.25;8.55;;;;;;;;;;5013411;28;20050;-76
2022/01/02 12:03:42;;;;;;;13.07;7.82;;;;;;;;;;5013683;28;20058;-75
2022/01/02 12:06:35;;;;;;;15.95;8.15;;;;;;;;;;5021577;28;20042;-76
2022/01/02 12:09:36;;;;;;;16.45;9.13;;;;;;;;;;5014510;28;20388;-76
2022/01/02 12:12:21;;;;;;;17.35;8.63;;;;;;;;;;5014661;28;20041;-75
2022/01/02 12:15:07;;;;;;;17.13;7.68;;;;;;;;;;5012846;28;20076;-76
2022/01/02 12:18:33;;;;;;;16.50;7.57;;;;;;;;;;5013688;28;20049;-76
2022/01/02 12:21:18;;;;;;;12.77;5.78;;;;;;;;;;5013968;28;20050;-74
2022/01/02 12:24:12;;;;;;;11.70;5.38;;;;;;;;;;5014549;28;20480;-74
2022/01/02 12:27:07;;;;;;;16.98;8.18;;;;;;;;;;5013799;28;20046;-76
2022/01/02 12:29:54;;;;;;;16.23;7.80;;;;;;;;;;5014113;28;20042;-75
2022/01/02 12:32:40;;;;;;;15.38;8.20;;;;;;;;;;5013958;28;20512;-76
2022/01/02 12:35:37;;;;;;;13.65;7.10;;;;;;;;;;5019596;28;20419;-75
2022/01/02 12:38:23;;;;;;;10.27;5.82;;;;;;;;;;5013759;28;20042;-75
2022/01/02 12:41:08;;;;;;;13.30;7.80;;;;;;;;;;5020814;28;20042;-75
2022/01/02 12:44:01;;;;;;;17.90;8.63;;;;;;;;;;5014219;28;20038;-76
2022/01/02 12:46:48;;;;;;;10.77;6.20;;;;;;;;;;5013923;28;20046;-76
2022/01/02 12:49:39;;;;;;;12.50;7.32;;;;;;;;;;5013055;28;20042;-76
2022/01/02 12:52:25;;;;;;;26.95;14.38;;;;;;;;;;5013787;28;20038;-75
2022/01/02 12:55:10;;;;;;;18.48;10.18;;;;;;;;;;5013586;28;20045;-75
2022/01/02 12:58:06;;;;;;;18.27;8.68;;;;;;;;;;5013946;28;20042;-76
2022/01/02 13:00:52;;;;;;;14.90;8.18;;;;;;;;;;5033479;28;20387;-76
2022/01/02 13:03:37;;;;;;;13.90;7.68;;;;;;;;;;5032902;28;20053;-77
2022/01/02 13:06:25;;;;;;;13.40;8.35;;;;;;;;;;5039840;28;20403;-76
2022/01/02 13:09:11;;;;;;;12.00;7.57;;;;;;;;;;5033429;28;20057;-76
2022/01/02 13:11:57;;;;;;;11.57;6.20;;;;;;;;;;5033460;28;20053;-76
2022/01/02 13:14:52;;;;;;;10.95;6.28;;;;;;;;;;5033387;28;20054;-76
2022/01/02 13:17:51;;;;;;;11.52;7.20;;;;;;;;;;5052660;28;20042;-76
2022/01/02 13:20:42;;;;;;;13.95;7.93;;;;;;;;;;5036846;28;20038;-75
2022/01/02 13:23:28;;;;;;;8.48;4.72;;;;;;;;;;5032901;28;20057;-75
2022/01/02 13:26:18;;;;;;;8.75;4.20;;;;;;;;;;5033476;28;20041;-75
2022/01/02 13:29:04;;;;;;;8.45;4.57;;;;;;;;;;5033074;28;20049;-75
2022/01/02 13:31:52;;;;;;;10.75;5.47;;;;;;;;;;5040096;28;20041;-75
2022/01/02 13:34:37;;;;;;;9.00;4.57;;;;;;;;;;5033163;28;20037;-75
2022/01/02 13:37:43;;;;;;;7.68;4.20;;;;;;;;;;5032980;28;20041;-75
2022/01/02 13:40:31;;;;;;;11.70;5.50;;;;;;;;;;5032225;28;20042;-75
2022/01/02 13:43:23;;;;;;;11.05;5.28;;;;;;;;;;5036756;28;20037;-75
2022/01/02 13:46:09;;;;;;;10.77;5.97;;;;;;;;;;5036921;28;20399;-75
2022/01/02 13:48:55;;;;;;;8.90;6.10;;;;;;;;;;5036810;28;20042;-75
2022/01/02 13:51:40;;;;;;;10.95;6.25;;;;;;;;;;5036615;28;20045;-75
2022/01/02 13:54:29;;;;;;;13.68;7.90;;;;;;;;;;5036126;28;20049;-74
2022/01/02 13:57:16;;;;;;;15.27;8.73;;;;;;;;;;5043195;28;20045;-75
2022/01/02 14:00:28;;;;;;;12.90;7.20;;;;;;;;;;5036436;28;20046;-74
2022/01/02 14:03:29;;;;;;;10.90;6.25;;;;;;;;;;5035569;28;20416;-75
2022/01/02 14:06:37;;;;;;;18.17;10.25;;;;;;;;;;5036516;28;20053;-75
2022/01/02 14:09:23;;;;;;;16.42;9.23;;;;;;;;;;5035698;28;20049;-74
2022/01/02 14:12:10;;;;;;;11.93;7.13;;;;;;;;;;5036927;28;20046;-74
2022/01/02 14:15:13;;;;;;;12.95;7.55;;;;;;;;;;5036424;28;20495;-74
2022/01/02 14:17:59;;;;;;;21.60;10.25;;;;;;;;;;5043116;28;20053;-75
2022/01/02 14:20:49;;;;;;;24.50;11.13;;;;;;;;;;5036067;28;20053;-76
2022/01/02 14:23:33;;;;;;;19.85;10.38;;;;;;;;;;5036688;28;20049;-74
2022/01/02 14:26:18;;;;;;;16.65;9.57;;;;;;;;;;5036189;28;20483;-75
2022/01/02 14:29:05;;;;;;;20.73;9.55;;;;;;;;;;5035738;28;20525;-76
2022/01/02 14:31:54;;;;;;;21.52;11.23;;;;;;;;;;5035866;28;20049;-75
2022/01/02 14:34:42;;;;;;;26.77;12.93;;;;;;;;;;5035590;28;20053;-75
2022/01/02 14:37:27;;;;;;;20.92;11.25;;;;;;;;;;5036242;28;20042;-75
2022/01/02 14:40:15;;;;;;;31.13;16.88;;;;;;;;;;5035490;28;20049;-75
2022/01/02 14:43:01;;;;;;;24.52;12.50;;;;;;;;;;5027562;28;20054;-74
2022/01/02 14:45:46;;;;;;;28.92;14.35;;;;;;;;;;5035563;28;20042;-74
2022/01/02 14:48:32;;;;;;;23.48;13.10;;;;;;;;;;5042190;28;20478;-74
2022/01/02 14:51:18;;;;;;;28.05;15.13;;;;;;;;;;5035466;28;20041;-74
2022/01/02 14:54:05;;;;;;;24.75;13.20;;;;;;;;;;5035400;28;20053;-74
2022/01/02 14:56:50;;;;;;;27.02;12.57;;;;;;;;;;5035579;28;20483;-74
2022/01/02 14:59:35;;;;;;;39.33;21.92;;;;;;;;;;5035164;28;20049;-73
2022/01/02 15:02:21;;;;;;;34.42;21.65;;;;;;;;;;5035461;28;20045;-73
2022/01/02 15:05:08;;;;;;;43.72;26.58;;;;;;;;;;5035432;28;20050;-73
2022/01/02 15:07:53;;;;;;;35.60;23.00;;;;;;;;;;5035133;28;20041;-73
2022/01/02 15:10:39;;;;;;;41.10;26.73;;;;;;;;;;5035241;28;20041;-73
2022/01/02 15:13:26;;;;;;;35.42;21.25;;;;;;;;;;5041887;28;20041;-73
2022/01/02 15:16:13;;;;;;;66.85;40.88;;;;;;;;;;5035127;28;20057;-72
2022/01/02 15:18:58;;;;;;;86.45;49.35;;;;;;;;;;5034991;28;20037;-72
2022/01/02 15:21:44;;;;;;;46.05;28.88;;;;;;;;;;5034799;28;20045;-72
2022/01/02 15:24:29;;;;;;;169.90;111.72;;;;;;;;;;5041917;28;20037;-72
2022/01/02 15:27:15;;;;;;;175.70;116.60;;;;;;;;;;5035066;28;20467;-74
2022/01/02 15:30:01;;;;;;;66.72;40.47;;;;;;;;;;5035148;28;20049;-76
2022/01/02 15:32:47;;;;;;;103.95;56.50;;;;;;;;;;5035251;28;20393;-72
2022/01/02 15:35:33;;;;;;;122.63;61.60;;;;;;;;;;5034879;28;20478;-73
2022/01/02 15:38:19;;;;;;;145.88;79.43;;;;;;;;;;5038610;28;20049;-73
2022/01/02 15:41:04;;;;;;;154.93;75.38;;;;;;;;;;5036736;28;20041;-73
2022/01/02 15:43:52;;;;;;;194.52;107.25;;;;;;;;;;5034290;28;20041;-73
2022/01/02 15:46:37;;;;;;;194.68;104.45;;;;;;;;;;5034522;28;20042;-73
2022/01/02 15:49:23;;;;;;;178.48;94.93;;;;;;;;;;5033604;28;20045;-73
2022/01/02 15:52:08;;;;;;;205.85;103.47;;;;;;;;;;5034133;28;20045;-73
2022/01/02 15:54:55;;;;;;;207.07;119.22;;;;;;;;;;5034226;28;20112;-73
2022/01/02 15:57:41;;;;;;;163.48;91.03;;;;;;;;;;5034969;28;20498;-82
2022/01/02 16:00:26;;;;;;;134.07;62.42;;;;;;;;;;5034564;28;20045;-82
2022/01/02 16:03:12;;;;;;;102.90;51.72;;;;;;;;;;5033410;28;20049;-81
2022/01/02 16:05:57;;;;;;;128.02;57.95;;;;;;;;;;5034086;28;20037;-80
2022/01/02 16:08:43;;;;;;;153.63;71.40;;;;;;;;;;5033931;28;20068;-82
2022/01/02 16:11:29;;;;;;;108.60;50.65;;;;;;;;;;5034229;28;20045;-82
2022/01/02 16:14:14;;;;;;;166.95;60.05;;;;;;;;;;5033694;28;20038;-81
2022/01/02 16:16:59;;;;;;;170.18;65.55;;;;;;;;;;5033919;28;20037;-82
2022/01/02 16:19:45;;;;;;;175.88;77.65;;;;;;;;;;5034049;28;20402;-82
2022/01/02 16:22:30;;;;;;;193.85;94.47;;;;;;;;;;5033802;28;20041;-81
2022/01/02 16:25:16;;;;;;;114.00;60.92;;;;;;;;;;5034047;28;20045;-80